sensor_id;sensor_type;location;lat;lon;timestamp;P1;durP1;ratioP1;P2;durP2;ratioP2
4272;SDS011;63887;53.656;9.810;2023-04-07T00:01:12;23.57;;;14.90;;
4272;SDS011;63887;53.656;9.810;2023-04-07T00:03:38;18.10;;;15.03;;
4272;SDS011;63887;53.656;9.810;2023-04-07T00:06:05;22.90;;;16.77;;
4272;SDS011;63887;53.656;9.810;2023-04-07T00:08:32;24.17;;;16.20;;
4272;SDS011;63887;53.656;9.810;2023-04-07T00:11:00;22.10;;;15.17;;
4272;SDS011;63887;53.656;9.810;2023-04-07T00:13:26;19.23;;;14.30;;
4272;SDS011;63887;53.656;9.810;2023-04-07T00:15:53;20.93;;;16.30;;
4272;SDS011;63887;53.656;9.810;2023-04-07T00:18:19;22.63;;;16.03;;
4272;SDS011;63887;53.656;9.810;2023-04-07T00:20:46;23.33;;;17.10;;
4272;SDS011;63887;53.656;9.810;2023-04-07T00:23:12;19.40;;;17.00;;
4272;SDS011;63887;53.656;9.810;2023-04-07T00:25:38;18.50;;;15.07;;
4272;SDS011;63887;53.656;9.810;2023-04-07T00:28:06;17.57;;;14.57;;
4272;SDS011;63887;53.656;9.810;2023-04-07T00:30:33;21.47;;;15.00;;
4272;SDS011;63887;53.656;9.810;2023-04-07T00:32:59;18.40;;;15.43;;
4272;SDS011;63887;53.656;9.810;2023-04-07T00:35:25;15.90;;;13.47;;
4272;SDS011;63887;53.656;9.810;2023-04-07T00:37:52;17.00;;;14.83;;
4272;SDS011;63887;53.656;9.810;2023-04-07T00:40:18;19.07;;;14.93;;
4272;SDS011;63887;53.656;9.810;2023-04-07T00:42:45;16.60;;;13.87;;
4272;SDS011;63887;53.656;9.810;2023-04-07T00:45:13;23.73;;;15.20;;
4272;SDS011;63887;53.656;9.810;2023-04-07T00:47:39;20.37;;;15.13;;
4272;SDS011;63887;53.656;9.810;2023-04-07T00:50:06;15.77;;;14.27;;
4272;SDS011;63887;53.656;9.810;2023-04-07T00:52:33;25.20;;;14.73;;
4272;SDS011;63887;53.656;9.810;2023-04-07T00:55:01;17.43;;;15.57;;
4272;SDS011;63887;53.656;9.810;2023-04-07T00:57:28;17.70;;;15.20;;
4272;SDS011;63887;53.656;9.810;2023-04-07T00:59:54;15.70;;;14.10;;
4272;SDS011;63887;53.656;9.810;2023-04-07T01:02:24;16.80;;;14.70;;
4272;SDS011;63887;53.656;9.810;2023-04-07T01:04:58;16.90;;;15.17;;
4272;SDS011;63887;53.656;9.810;2023-04-07T01:07:33;17.20;;;14.57;;
4272;SDS011;63887;53.656;9.810;2023-04-07T01:10:05;20.90;;;15.73;;
4272;SDS011;63887;53.656;9.810;2023-04-07T01:12:38;17.43;;;15.30;;
4272;SDS011;63887;53.656;9.810;2023-04-07T01:15:08;19.63;;;14.90;;
4272;SDS011;63887;53.656;9.810;2023-04-07T01:17:37;18.43;;;14.67;;
4272;SDS011;63887;53.656;9.810;2023-04-07T01:20:09;17.90;;;15.70;;
4272;SDS011;63887;53.656;9.810;2023-04-07T01:22:40;22.40;;;16.17;;
4272;SDS011;63887;53.656;9.810;2023-04-07T01:25:26;19.20;;;15.40;;
4272;SDS011;63887;53.656;9.810;2023-04-07T01:28:07;17.73;;;15.93;;
4272;SDS011;63887;53.656;9.810;2023-04-07T01:30:42;19.60;;;16.00;;
4272;SDS011;63887;53.656;9.810;2023-04-07T01:33:10;19.10;;;15.73;;
4272;SDS011;63887;53.656;9.810;2023-04-07T01:35:39;17.03;;;14.97;;
4272;SDS011;63887;53.656;9.810;2023-04-07T01:38:07;19.03;;;17.13;;
4272;SDS011;63887;53.656;9.810;2023-04-07T01:40:36;21.57;;;15.13;;
4272;SDS011;63887;53.656;9.810;2023-04-07T01:43:04;16.53;;;15.00;;
4272;SDS011;63887;53.656;9.810;2023-04-07T01:45:32;25.03;;;15.90;;
4272;SDS011;63887;53.656;9.810;2023-04-07T01:48:02;16.37;;;14.80;;
4272;SDS011;63887;53.656;9.810;2023-04-07T01:50:31;19.47;;;15.27;;
4272;SDS011;63887;53.656;9.810;2023-04-07T01:52:58;20.10;;;14.43;;
4272;SDS011;63887;53.656;9.810;2023-04-07T01:55:26;16.23;;;13.97;;
4272;SDS011;63887;53.656;9.810;2023-04-07T01:57:53;20.63;;;15.83;;
4272;SDS011;63887;53.656;9.810;2023-04-07T02:00:19;16.80;;;15.00;;
4272;SDS011;63887;53.656;9.810;2023-04-07T02:02:47;21.23;;;16.00;;
4272;SDS011;63887;53.656;9.810;2023-04-07T02:05:18;16.13;;;14.43;;
4272;SDS011;63887;53.656;9.810;2023-04-07T02:07:48;20.70;;;16.10;;
4272;SDS011;63887;53.656;9.810;2023-04-07T02:10:19;21.07;;;13.70;;
4272;SDS011;63887;53.656;9.810;2023-04-07T02:12:48;19.40;;;14.37;;
4272;SDS011;63887;53.656;9.810;2023-04-07T02:15:15;15.63;;;14.13;;
4272;SDS011;63887;53.656;9.810;2023-04-07T02:17:45;14.43;;;13.13;;
4272;SDS011;63887;53.656;9.810;2023-04-07T02:20:15;20.40;;;14.37;;
4272;SDS011;63887;53.656;9.810;2023-04-07T02:22:44;14.57;;;13.03;;
4272;SDS011;63887;53.656;9.810;2023-04-07T02:25:21;16.47;;;14.53;;
4272;SDS011;63887;53.656;9.810;2023-04-07T02:27:48;15.27;;;13.87;;
4272;SDS011;63887;53.656;9.810;2023-04-07T02:30:15;16.43;;;13.57;;
4272;SDS011;63887;53.656;9.810;2023-04-07T02:32:42;18.00;;;13.50;;
4272;SDS011;63887;53.656;9.810;2023-04-07T02:35:08;17.50;;;14.23;;
4272;SDS011;63887;53.656;9.810;2023-04-07T02:37:35;13.97;;;12.40;;
4272;SDS011;63887;53.656;9.810;2023-04-07T02:40:03;14.07;;;12.70;;
4272;SDS011;63887;53.656;9.810;2023-04-07T02:42:31;15.80;;;14.03;;
4272;SDS011;63887;53.656;9.810;2023-04-07T02:44:57;17.10;;;13.67;;
4272;SDS011;63887;53.656;9.810;2023-04-07T02:47:24;14.73;;;13.40;;
4272;SDS011;63887;53.656;9.810;2023-04-07T02:49:50;14.85;;;13.65;;
4272;SDS011;63887;53.656;9.810;2023-04-07T02:52:17;14.25;;;12.77;;
4272;SDS011;63887;53.656;9.810;2023-04-07T02:54:43;13.80;;;12.40;;
4272;SDS011;63887;53.656;9.810;2023-04-07T02:57:11;13.35;;;12.15;;
4272;SDS011;63887;53.656;9.810;2023-04-07T02:59:38;14.17;;;12.97;;
4272;SDS011;63887;53.656;9.810;2023-04-07T03:02:05;14.85;;;13.10;;
4272;SDS011;63887;53.656;9.810;2023-04-07T03:04:31;13.52;;;12.38;;
4272;SDS011;63887;53.656;9.810;2023-04-07T03:06:58;14.03;;;11.70;;
4272;SDS011;63887;53.656;9.810;2023-04-07T03:09:24;13.10;;;12.00;;
4272;SDS011;63887;53.656;9.810;2023-04-07T03:11:51;13.97;;;12.13;;
4272;SDS011;63887;53.656;9.810;2023-04-07T03:14:19;15.93;;;12.47;;
4272;SDS011;63887;53.656;9.810;2023-04-07T03:16:45;13.63;;;12.40;;
4272;SDS011;63887;53.656;9.810;2023-04-07T03:19:12;13.90;;;12.60;;
4272;SDS011;63887;53.656;9.810;2023-04-07T03:21:38;13.87;;;12.10;;
4272;SDS011;63887;53.656;9.810;2023-04-07T03:24:05;15.37;;;12.50;;
4272;SDS011;63887;53.656;9.810;2023-04-07T03:26:32;14.32;;;13.05;;
4272;SDS011;63887;53.656;9.810;2023-04-07T03:28:58;12.10;;;11.20;;
4272;SDS011;63887;53.656;9.810;2023-04-07T03:31:26;13.77;;;11.73;;
4272;SDS011;63887;53.656;9.810;2023-04-07T03:33:54;17.03;;;12.80;;
4272;SDS011;63887;53.656;9.810;2023-04-07T03:36:20;14.07;;;12.10;;
4272;SDS011;63887;53.656;9.810;2023-04-07T03:38:48;12.55;;;11.35;;
4272;SDS011;63887;53.656;9.810;2023-04-07T03:41:15;14.63;;;12.50;;
4272;SDS011;63887;53.656;9.810;2023-04-07T03:43:41;16.23;;;13.07;;
4272;SDS011;63887;53.656;9.810;2023-04-07T03:46:07;13.70;;;11.63;;
4272;SDS011;63887;53.656;9.810;2023-04-07T03:48:35;12.97;;;11.70;;
4272;SDS011;63887;53.656;9.810;2023-04-07T03:51:02;13.40;;;12.00;;
4272;SDS011;63887;53.656;9.810;2023-04-07T03:53:28;13.63;;;11.90;;
4272;SDS011;63887;53.656;9.810;2023-04-07T03:55:55;12.80;;;11.67;;
4272;SDS011;63887;53.656;9.810;2023-04-07T03:58:21;12.60;;;11.40;;
4272;SDS011;63887;53.656;9.810;2023-04-07T04:00:48;14.30;;;11.63;;
4272;SDS011;63887;53.656;9.810;2023-04-07T04:03:14;13.87;;;11.20;;
4272;SDS011;63887;53.656;9.810;2023-04-07T04:05:42;22.30;;;11.90;;
4272;SDS011;63887;53.656;9.810;2023-04-07T04:08:08;15.73;;;11.20;;
4272;SDS011;63887;53.656;9.810;2023-04-07T04:10:35;12.80;;;11.55;;
4272;SDS011;63887;53.656;9.810;2023-04-07T04:13:01;13.35;;;11.90;;
4272;SDS011;63887;53.656;9.810;2023-04-07T04:15:30;12.27;;;11.10;;
4272;SDS011;63887;53.656;9.810;2023-04-07T04:17:57;13.73;;;11.50;;
4272;SDS011;63887;53.656;9.810;2023-04-07T04:20:23;11.02;;;10.13;;
4272;SDS011;63887;53.656;9.810;2023-04-07T04:22:51;16.43;;;11.40;;
4272;SDS011;63887;53.656;9.810;2023-04-07T04:25:18;11.57;;;10.47;;
4272;SDS011;63887;53.656;9.810;2023-04-07T04:27:45;15.35;;;11.43;;
4272;SDS011;63887;53.656;9.810;2023-04-07T04:30:11;13.88;;;12.43;;
4272;SDS011;63887;53.656;9.810;2023-04-07T04:32:38;17.43;;;11.63;;
4272;SDS011;63887;53.656;9.810;2023-04-07T04:35:05;12.67;;;11.50;;
4272;SDS011;63887;53.656;9.810;2023-04-07T04:37:31;14.52;;;11.10;;
4272;SDS011;63887;53.656;9.810;2023-04-07T04:40:00;15.60;;;11.40;;
4272;SDS011;63887;53.656;9.810;2023-04-07T04:42:26;27.50;;;11.53;;
4272;SDS011;63887;53.656;9.810;2023-04-07T04:44:52;14.73;;;11.03;;
4272;SDS011;63887;53.656;9.810;2023-04-07T04:47:19;14.55;;;10.98;;
4272;SDS011;63887;53.656;9.810;2023-04-07T04:49:46;11.50;;;10.50;;
4272;SDS011;63887;53.656;9.810;2023-04-07T04:52:12;13.32;;;11.70;;
4272;SDS011;63887;53.656;9.810;2023-04-07T04:54:39;12.50;;;11.40;;
4272;SDS011;63887;53.656;9.810;2023-04-07T04:57:06;12.93;;;10.85;;
4272;SDS011;63887;53.656;9.810;2023-04-07T04:59:33;12.48;;;11.25;;
4272;SDS011;63887;53.656;9.810;2023-04-07T05:01:59;12.45;;;11.20;;
4272;SDS011;63887;53.656;9.810;2023-04-07T05:04:26;14.45;;;12.98;;
4272;SDS011;63887;53.656;9.810;2023-04-07T05:06:52;15.25;;;10.90;;
4272;SDS011;63887;53.656;9.810;2023-04-07T05:09:19;12.73;;;11.40;;
4272;SDS011;63887;53.656;9.810;2023-04-07T05:11:45;16.08;;;10.60;;
4272;SDS011;63887;53.656;9.810;2023-04-07T05:14:13;12.82;;;11.52;;
4272;SDS011;63887;53.656;9.810;2023-04-07T05:16:39;12.82;;;11.63;;
4272;SDS011;63887;53.656;9.810;2023-04-07T05:19:06;11.77;;;10.70;;
4272;SDS011;63887;53.656;9.810;2023-04-07T05:21:32;11.43;;;10.20;;
4272;SDS011;63887;53.656;9.810;2023-04-07T05:23:59;11.43;;;10.33;;
4272;SDS011;63887;53.656;9.810;2023-04-07T05:26:25;12.27;;;11.15;;
4272;SDS011;63887;53.656;9.810;2023-04-07T05:28:52;11.70;;;10.73;;
4272;SDS011;63887;53.656;9.810;2023-04-07T05:31:20;18.33;;;10.70;;
4272;SDS011;63887;53.656;9.810;2023-04-07T05:33:46;12.75;;;11.23;;
4272;SDS011;63887;53.656;9.810;2023-04-07T05:36:12;12.55;;;11.45;;
4272;SDS011;63887;53.656;9.810;2023-04-07T05:38:39;12.23;;;11.07;;
4272;SDS011;63887;53.656;9.810;2023-04-07T05:41:05;11.17;;;10.27;;
4272;SDS011;63887;53.656;9.810;2023-04-07T05:43:32;13.17;;;11.87;;
4272;SDS011;63887;53.656;9.810;2023-04-07T05:45:58;11.90;;;10.75;;
4272;SDS011;63887;53.656;9.810;2023-04-07T05:48:26;12.85;;;11.65;;
4272;SDS011;63887;53.656;9.810;2023-04-07T05:50:53;13.90;;;10.98;;
4272;SDS011;63887;53.656;9.810;2023-04-07T05:53:19;10.88;;;9.98;;
4272;SDS011;63887;53.656;9.810;2023-04-07T05:55:46;11.10;;;10.15;;
4272;SDS011;63887;53.656;9.810;2023-04-07T05:58:12;11.60;;;10.50;;
4272;SDS011;63887;53.656;9.810;2023-04-07T06:00:39;11.98;;;10.73;;
4272;SDS011;63887;53.656;9.810;2023-04-07T06:03:06;18.05;;;10.40;;
4272;SDS011;63887;53.656;9.810;2023-04-07T06:05:34;11.75;;;10.73;;
4272;SDS011;63887;53.656;9.810;2023-04-07T06:08:00;11.17;;;10.13;;
4272;SDS011;63887;53.656;9.810;2023-04-07T06:10:27;13.90;;;12.40;;
4272;SDS011;63887;53.656;9.810;2023-04-07T06:12:53;12.93;;;11.03;;
4272;SDS011;63887;53.656;9.810;2023-04-07T06:15:20;13.10;;;11.07;;
4272;SDS011;63887;53.656;9.810;2023-04-07T06:17:46;12.20;;;11.00;;
4272;SDS011;63887;53.656;9.810;2023-04-07T06:20:12;11.67;;;10.63;;
4272;SDS011;63887;53.656;9.810;2023-04-07T06:22:40;12.53;;;11.40;;
4272;SDS011;63887;53.656;9.810;2023-04-07T06:25:07;12.83;;;10.77;;
4272;SDS011;63887;53.656;9.810;2023-04-07T06:27:34;13.23;;;11.17;;
4272;SDS011;63887;53.656;9.810;2023-04-07T06:30:01;11.30;;;10.30;;
4272;SDS011;63887;53.656;9.810;2023-04-07T06:32:27;12.63;;;11.30;;
4272;SDS011;63887;53.656;9.810;2023-04-07T06:34:54;15.73;;;11.80;;
4272;SDS011;63887;53.656;9.810;2023-04-07T06:37:20;17.43;;;12.53;;
4272;SDS011;63887;53.656;9.810;2023-04-07T06:39:50;12.20;;;11.20;;
4272;SDS011;63887;53.656;9.810;2023-04-07T06:42:16;11.60;;;10.80;;
4272;SDS011;63887;53.656;9.810;2023-04-07T06:44:43;20.90;;;11.90;;
4272;SDS011;63887;53.656;9.810;2023-04-07T06:47:09;12.77;;;11.60;;
4272;SDS011;63887;53.656;9.810;2023-04-07T06:49:36;12.33;;;11.10;;
4272;SDS011;63887;53.656;9.810;2023-04-07T06:52:03;13.27;;;12.00;;
4272;SDS011;63887;53.656;9.810;2023-04-07T06:54:29;12.93;;;11.80;;
4272;SDS011;63887;53.656;9.810;2023-04-07T06:56:57;12.83;;;11.67;;
4272;SDS011;63887;53.656;9.810;2023-04-07T06:59:24;13.33;;;12.17;;
4272;SDS011;63887;53.656;9.810;2023-04-07T07:01:50;15.87;;;12.20;;
4272;SDS011;63887;53.656;9.810;2023-04-07T07:04:16;13.77;;;12.13;;
4272;SDS011;63887;53.656;9.810;2023-04-07T07:06:43;15.60;;;11.20;;
4272;SDS011;63887;53.656;9.810;2023-04-07T07:09:09;13.27;;;11.37;;
4272;SDS011;63887;53.656;9.810;2023-04-07T07:11:36;12.33;;;11.10;;
4272;SDS011;63887;53.656;9.810;2023-04-07T07:14:03;12.33;;;11.27;;
4272;SDS011;63887;53.656;9.810;2023-04-07T07:16:30;16.20;;;11.73;;
4272;SDS011;63887;53.656;9.810;2023-04-07T07:18:56;14.30;;;12.27;;
4272;SDS011;63887;53.656;9.810;2023-04-07T07:21:23;13.13;;;11.33;;
4272;SDS011;63887;53.656;9.810;2023-04-07T07:23:50;15.23;;;13.40;;
4272;SDS011;63887;53.656;9.810;2023-04-07T07:26:17;14.50;;;12.57;;
4272;SDS011;63887;53.656;9.810;2023-04-07T07:28:43;12.30;;;11.20;;
4272;SDS011;63887;53.656;9.810;2023-04-07T07:31:12;12.17;;;11.00;;
4272;SDS011;63887;53.656;9.810;2023-04-07T07:33:39;14.37;;;13.00;;
4272;SDS011;63887;53.656;9.810;2023-04-07T07:36:08;13.33;;;12.13;;
4272;SDS011;63887;53.656;9.810;2023-04-07T07:38:34;13.93;;;11.13;;
4272;SDS011;63887;53.656;9.810;2023-04-07T07:41:02;12.30;;;11.10;;
4272;SDS011;63887;53.656;9.810;2023-04-07T07:43:29;13.53;;;11.83;;
4272;SDS011;63887;53.656;9.810;2023-04-07T07:45:55;18.47;;;11.00;;
4272;SDS011;63887;53.656;9.810;2023-04-07T07:48:23;12.20;;;11.10;;
4272;SDS011;63887;53.656;9.810;2023-04-07T07:50:50;22.23;;;11.23;;
4272;SDS011;63887;53.656;9.810;2023-04-07T07:53:17;13.93;;;10.87;;
4272;SDS011;63887;53.656;9.810;2023-04-07T07:55:44;13.00;;;10.93;;
4272;SDS011;63887;53.656;9.810;2023-04-07T07:58:10;12.23;;;11.10;;
4272;SDS011;63887;53.656;9.810;2023-04-07T08:00:37;12.63;;;10.40;;
4272;SDS011;63887;53.656;9.810;2023-04-07T08:03:03;13.13;;;10.97;;
4272;SDS011;63887;53.656;9.810;2023-04-07T08:05:31;11.97;;;11.10;;
4272;SDS011;63887;53.656;9.810;2023-04-07T08:07:57;11.57;;;10.53;;
4272;SDS011;63887;53.656;9.810;2023-04-07T08:10:24;12.73;;;10.80;;
4272;SDS011;63887;53.656;9.810;2023-04-07T08:12:50;12.43;;;11.27;;
4272;SDS011;63887;53.656;9.810;2023-04-07T08:15:17;15.60;;;11.53;;
4272;SDS011;63887;53.656;9.810;2023-04-07T08:17:43;18.70;;;10.57;;
4272;SDS011;63887;53.656;9.810;2023-04-07T08:20:10;12.60;;;11.07;;
4272;SDS011;63887;53.656;9.810;2023-04-07T08:22:38;13.23;;;10.73;;
4272;SDS011;63887;53.656;9.810;2023-04-07T08:25:05;11.70;;;10.60;;
4272;SDS011;63887;53.656;9.810;2023-04-07T08:27:32;12.90;;;9.80;;
4272;SDS011;63887;53.656;9.810;2023-04-07T08:29:58;11.53;;;10.60;;
4272;SDS011;63887;53.656;9.810;2023-04-07T08:32:32;11.77;;;10.63;;
4272;SDS011;63887;53.656;9.810;2023-04-07T08:34:59;11.43;;;9.90;;
4272;SDS011;63887;53.656;9.810;2023-04-07T08:37:26;12.57;;;9.63;;
4272;SDS011;63887;53.656;9.810;2023-04-07T08:39:53;10.67;;;9.80;;
4272;SDS011;63887;53.656;9.810;2023-04-07T08:42:20;10.33;;;9.33;;
4272;SDS011;63887;53.656;9.810;2023-04-07T08:44:51;10.60;;;9.50;;
4272;SDS011;63887;53.656;9.810;2023-04-07T08:47:20;10.57;;;9.77;;
4272;SDS011;63887;53.656;9.810;2023-04-07T08:49:50;11.13;;;10.23;;
4272;SDS011;63887;53.656;9.810;2023-04-07T08:52:18;9.63;;;9.00;;
4272;SDS011;63887;53.656;9.810;2023-04-07T08:54:48;9.90;;;8.93;;
4272;SDS011;63887;53.656;9.810;2023-04-07T08:57:18;10.63;;;9.77;;
4272;SDS011;63887;53.656;9.810;2023-04-07T08:59:45;11.33;;;10.33;;
4272;SDS011;63887;53.656;9.810;2023-04-07T09:02:15;11.67;;;10.60;;
4272;SDS011;63887;53.656;9.810;2023-04-07T09:04:43;13.03;;;10.70;;
4272;SDS011;63887;53.656;9.810;2023-04-07T09:07:10;11.90;;;10.70;;
4272;SDS011;63887;53.656;9.810;2023-04-07T09:09:37;14.90;;;10.40;;
4272;SDS011;63887;53.656;9.810;2023-04-07T09:12:03;10.43;;;9.53;;
4272;SDS011;63887;53.656;9.810;2023-04-07T09:14:31;11.03;;;10.00;;
4272;SDS011;63887;53.656;9.810;2023-04-07T09:16:57;12.50;;;11.07;;
4272;SDS011;63887;53.656;9.810;2023-04-07T09:19:25;11.30;;;10.40;;
4272;SDS011;63887;53.656;9.810;2023-04-07T09:21:52;14.40;;;10.37;;
4272;SDS011;63887;53.656;9.810;2023-04-07T09:24:22;12.07;;;11.10;;
4272;SDS011;63887;53.656;9.810;2023-04-07T09:26:49;13.37;;;11.10;;
4272;SDS011;63887;53.656;9.810;2023-04-07T09:29:17;12.33;;;11.43;;
4272;SDS011;63887;53.656;9.810;2023-04-07T09:31:46;11.97;;;10.93;;
4272;SDS011;63887;53.656;9.810;2023-04-07T09:34:24;13.33;;;11.03;;
4272;SDS011;63887;53.656;9.810;2023-04-07T09:36:51;11.90;;;10.80;;
4272;SDS011;63887;53.656;9.810;2023-04-07T09:39:18;11.33;;;10.50;;
4272;SDS011;63887;53.656;9.810;2023-04-07T09:41:45;12.13;;;10.00;;
4272;SDS011;63887;53.656;9.810;2023-04-07T09:44:12;11.80;;;10.80;;
4272;SDS011;63887;53.656;9.810;2023-04-07T09:46:48;10.17;;;9.17;;
4272;SDS011;63887;53.656;9.810;2023-04-07T09:49:15;11.80;;;10.60;;
4272;SDS011;63887;53.656;9.810;2023-04-07T09:51:51;12.57;;;10.90;;
4272;SDS011;63887;53.656;9.810;2023-04-07T09:54:31;13.60;;;10.60;;
4272;SDS011;63887;53.656;9.810;2023-04-07T09:56:59;13.27;;;10.93;;
4272;SDS011;63887;53.656;9.810;2023-04-07T09:59:26;19.77;;;12.37;;
4272;SDS011;63887;53.656;9.810;2023-04-07T10:01:55;11.37;;;10.20;;
4272;SDS011;63887;53.656;9.810;2023-04-07T10:04:21;21.57;;;11.70;;
4272;SDS011;63887;53.656;9.810;2023-04-07T10:06:49;11.60;;;10.27;;
4272;SDS011;63887;53.656;9.810;2023-04-07T10:09:18;12.63;;;10.70;;
4272;SDS011;63887;53.656;9.810;2023-04-07T10:11:45;12.00;;;10.90;;
4272;SDS011;63887;53.656;9.810;2023-04-07T10:14:12;11.23;;;10.53;;
4272;SDS011;63887;53.656;9.810;2023-04-07T10:16:38;11.10;;;10.00;;
4272;SDS011;63887;53.656;9.810;2023-04-07T10:19:08;10.30;;;9.47;;
4272;SDS011;63887;53.656;9.810;2023-04-07T10:21:34;23.50;;;9.93;;
4272;SDS011;63887;53.656;9.810;2023-04-07T10:24:06;9.70;;;8.97;;
4272;SDS011;63887;53.656;9.810;2023-04-07T10:26:43;9.80;;;8.97;;
4272;SDS011;63887;53.656;9.810;2023-04-07T10:29:12;10.20;;;9.27;;
4272;SDS011;63887;53.656;9.810;2023-04-07T10:31:41;10.70;;;9.70;;
4272;SDS011;63887;53.656;9.810;2023-04-07T10:34:10;9.67;;;9.00;;
4272;SDS011;63887;53.656;9.810;2023-04-07T10:37:07;10.57;;;9.50;;
4272;SDS011;63887;53.656;9.810;2023-04-07T10:39:33;8.97;;;8.43;;
4272;SDS011;63887;53.656;9.810;2023-04-07T10:42:01;9.90;;;9.20;;
4272;SDS011;63887;53.656;9.810;2023-04-07T10:44:44;10.57;;;9.50;;
4272;SDS011;63887;53.656;9.810;2023-04-07T10:47:12;10.07;;;9.30;;
4272;SDS011;63887;53.656;9.810;2023-04-07T10:49:40;21.03;;;10.63;;
4272;SDS011;63887;53.656;9.810;2023-04-07T10:52:40;12.00;;;11.00;;
4272;SDS011;63887;53.656;9.810;2023-04-07T10:58:12;11.40;;;10.23;;
4272;SDS011;63887;53.656;9.810;2023-04-07T11:03:51;9.97;;;9.00;;
4272;SDS011;63887;53.656;9.810;2023-04-07T11:06:30;10.77;;;9.50;;
4272;SDS011;63887;53.656;9.810;2023-04-07T11:08:56;12.67;;;9.10;;
4272;SDS011;63887;53.656;9.810;2023-04-07T11:11:36;11.30;;;10.03;;
4272;SDS011;63887;53.656;9.810;2023-04-07T11:14:04;11.23;;;10.10;;
4272;SDS011;63887;53.656;9.810;2023-04-07T11:16:37;10.83;;;10.03;;
4272;SDS011;63887;53.656;9.810;2023-04-07T11:19:07;10.97;;;9.60;;
4272;SDS011;63887;53.656;9.810;2023-04-07T11:21:35;11.73;;;9.93;;
4272;SDS011;63887;53.656;9.810;2023-04-07T11:24:02;14.83;;;11.20;;
4272;SDS011;63887;53.656;9.810;2023-04-07T11:26:29;12.70;;;11.43;;
4272;SDS011;63887;53.656;9.810;2023-04-07T11:29:02;12.90;;;11.60;;
4272;SDS011;63887;53.656;9.810;2023-04-07T11:31:29;11.50;;;10.37;;
4272;SDS011;63887;53.656;9.810;2023-04-07T11:33:57;13.83;;;11.07;;
4272;SDS011;63887;53.656;9.810;2023-04-07T11:36:26;16.53;;;10.77;;
4272;SDS011;63887;53.656;9.810;2023-04-07T11:38:55;11.23;;;10.33;;
4272;SDS011;63887;53.656;9.810;2023-04-07T11:41:22;10.87;;;9.97;;
4272;SDS011;63887;53.656;9.810;2023-04-07T11:44:02;10.57;;;9.90;;
4272;SDS011;63887;53.656;9.810;2023-04-07T11:46:29;10.73;;;9.90;;
4272;SDS011;63887;53.656;9.810;2023-04-07T11:49:06;10.50;;;9.40;;
4272;SDS011;63887;53.656;9.810;2023-04-07T11:51:34;11.80;;;10.70;;
4272;SDS011;63887;53.656;9.810;2023-04-07T11:54:02;11.00;;;9.20;;
4272;SDS011;63887;53.656;9.810;2023-04-07T11:56:29;11.07;;;10.00;;
4272;SDS011;63887;53.656;9.810;2023-04-07T11:58:55;11.60;;;10.70;;
4272;SDS011;63887;53.656;9.810;2023-04-07T12:01:22;12.73;;;11.60;;
4272;SDS011;63887;53.656;9.810;2023-04-07T12:03:55;12.67;;;9.80;;
4272;SDS011;63887;53.656;9.810;2023-04-07T12:06:27;12.30;;;10.20;;
4272;SDS011;63887;53.656;9.810;2023-04-07T12:08:54;16.13;;;10.30;;
4272;SDS011;63887;53.656;9.810;2023-04-07T12:11:22;10.80;;;9.90;;
4272;SDS011;63887;53.656;9.810;2023-04-07T12:13:50;11.23;;;9.73;;
4272;SDS011;63887;53.656;9.810;2023-04-07T12:16:17;10.20;;;9.07;;
4272;SDS011;63887;53.656;9.810;2023-04-07T12:18:43;18.03;;;9.60;;
4272;SDS011;63887;53.656;9.810;2023-04-07T12:21:10;9.93;;;9.23;;
4272;SDS011;63887;53.656;9.810;2023-04-07T12:23:36;9.73;;;8.83;;
4272;SDS011;63887;53.656;9.810;2023-04-07T12:26:03;9.93;;;9.13;;
4272;SDS011;63887;53.656;9.810;2023-04-07T12:28:31;9.93;;;8.97;;
4272;SDS011;63887;53.656;9.810;2023-04-07T12:30:57;8.77;;;7.90;;
4272;SDS011;63887;53.656;9.810;2023-04-07T12:33:24;9.63;;;8.70;;
4272;SDS011;63887;53.656;9.810;2023-04-07T12:35:50;11.30;;;8.17;;
4272;SDS011;63887;53.656;9.810;2023-04-07T12:38:17;9.10;;;8.40;;
4272;SDS011;63887;53.656;9.810;2023-04-07T12:40:43;8.90;;;8.30;;
4272;SDS011;63887;53.656;9.810;2023-04-07T12:43:10;8.77;;;8.20;;
4272;SDS011;63887;53.656;9.810;2023-04-07T12:45:38;8.63;;;7.87;;
4272;SDS011;63887;53.656;9.810;2023-04-07T12:48:04;10.00;;;7.57;;
4272;SDS011;63887;53.656;9.810;2023-04-07T12:50:31;7.00;;;6.67;;
4272;SDS011;63887;53.656;9.810;2023-04-07T12:52:57;8.70;;;7.93;;
4272;SDS011;63887;53.656;9.810;2023-04-07T12:55:27;8.60;;;7.97;;
4272;SDS011;63887;53.656;9.810;2023-04-07T12:57:54;8.13;;;7.57;;
4272;SDS011;63887;53.656;9.810;2023-04-07T13:00:21;7.80;;;7.30;;
4272;SDS011;63887;53.656;9.810;2023-04-07T13:02:49;7.63;;;7.03;;
4272;SDS011;63887;53.656;9.810;2023-04-07T13:05:16;7.83;;;7.23;;
4272;SDS011;63887;53.656;9.810;2023-04-07T13:07:43;8.00;;;7.40;;
4272;SDS011;63887;53.656;9.810;2023-04-07T13:10:10;8.33;;;7.50;;
4272;SDS011;63887;53.656;9.810;2023-04-07T13:12:37;7.77;;;7.13;;
4272;SDS011;63887;53.656;9.810;2023-04-07T13:15:05;7.30;;;6.90;;
4272;SDS011;63887;53.656;9.810;2023-04-07T13:17:32;7.40;;;7.10;;
4272;SDS011;63887;53.656;9.810;2023-04-07T13:20:02;7.47;;;7.10;;
4272;SDS011;63887;53.656;9.810;2023-04-07T13:22:29;6.87;;;6.40;;
4272;SDS011;63887;53.656;9.810;2023-04-07T13:24:56;6.33;;;6.13;;
4272;SDS011;63887;53.656;9.810;2023-04-07T13:27:22;8.90;;;8.10;;
4272;SDS011;63887;53.656;9.810;2023-04-07T13:29:48;8.17;;;7.47;;
4272;SDS011;63887;53.656;9.810;2023-04-07T13:32:15;7.43;;;7.00;;
4272;SDS011;63887;53.656;9.810;2023-04-07T13:34:42;6.97;;;6.60;;
4272;SDS011;63887;53.656;9.810;2023-04-07T13:37:10;6.90;;;6.30;;
4272;SDS011;63887;53.656;9.810;2023-04-07T13:39:37;7.03;;;6.30;;
4272;SDS011;63887;53.656;9.810;2023-04-07T13:42:03;7.70;;;7.33;;
4272;SDS011;63887;53.656;9.810;2023-04-07T13:44:32;7.80;;;7.40;;
4272;SDS011;63887;53.656;9.810;2023-04-07T13:47:01;7.40;;;7.10;;
4272;SDS011;63887;53.656;9.810;2023-04-07T13:49:27;6.90;;;6.70;;
4272;SDS011;63887;53.656;9.810;2023-04-07T13:51:54;9.70;;;5.93;;
4272;SDS011;63887;53.656;9.810;2023-04-07T13:54:22;11.57;;;6.57;;
4272;SDS011;63887;53.656;9.810;2023-04-07T13:56:48;6.13;;;5.63;;
4272;SDS011;63887;53.656;9.810;2023-04-07T13:59:15;6.53;;;6.20;;
4272;SDS011;63887;53.656;9.810;2023-04-07T14:01:41;6.87;;;6.47;;
4272;SDS011;63887;53.656;9.810;2023-04-07T14:04:08;7.60;;;7.20;;
4272;SDS011;63887;53.656;9.810;2023-04-07T14:06:34;7.10;;;6.80;;
4272;SDS011;63887;53.656;9.810;2023-04-07T14:09:02;10.37;;;7.73;;
4272;SDS011;63887;53.656;9.810;2023-04-07T14:11:31;6.77;;;6.23;;
4272;SDS011;63887;53.656;9.810;2023-04-07T14:13:58;9.40;;;7.53;;
4272;SDS011;63887;53.656;9.810;2023-04-07T14:16:25;7.37;;;6.97;;
4272;SDS011;63887;53.656;9.810;2023-04-07T14:18:52;7.60;;;7.20;;
4272;SDS011;63887;53.656;9.810;2023-04-07T14:21:20;7.53;;;7.10;;
4272;SDS011;63887;53.656;9.810;2023-04-07T14:23:46;7.60;;;7.20;;
4272;SDS011;63887;53.656;9.810;2023-04-07T14:26:12;7.53;;;7.23;;
4272;SDS011;63887;53.656;9.810;2023-04-07T14:28:40;7.60;;;7.23;;
4272;SDS011;63887;53.656;9.810;2023-04-07T14:31:10;7.47;;;6.70;;
4272;SDS011;63887;53.656;9.810;2023-04-07T14:33:38;7.53;;;7.03;;
4272;SDS011;63887;53.656;9.810;2023-04-07T14:36:04;7.33;;;7.10;;
4272;SDS011;63887;53.656;9.810;2023-04-07T14:38:31;9.33;;;8.00;;
4272;SDS011;63887;53.656;9.810;2023-04-07T14:40:57;7.60;;;6.90;;
4272;SDS011;63887;53.656;9.810;2023-04-07T14:43:24;7.70;;;7.33;;
4272;SDS011;63887;53.656;9.810;2023-04-07T14:45:53;8.20;;;7.60;;
4272;SDS011;63887;53.656;9.810;2023-04-07T14:48:19;8.80;;;8.17;;
4272;SDS011;63887;53.656;9.810;2023-04-07T14:50:46;8.57;;;8.07;;